createdAt,value
2018-08-27T00:00:14.550Z,93.60
2018-08-27T00:01:14.481Z,94.31
2018-08-27T00:02:14.399Z,95.12
2018-08-27T00:03:14.324Z,95.12
2018-08-27T00:04:14.243Z,94.41
2018-08-27T00:05:14.167Z,94.27
2018-08-27T00:06:14.085Z,93.79
2018-08-27T00:07:14.009Z,93.98
2018-08-27T00:08:13.933Z,92.36
2018-08-27T00:09:13.857Z,92.55
2018-08-27T00:10:13.775Z,92.88
2018-08-27T00:11:13.699Z,94.07
2018-08-27T00:12:13.623Z,93.74
2018-08-27T00:13:13.542Z,94.93
2018-08-27T00:14:13.467Z,94.79
2018-08-27T00:15:13.389Z,94.70
2018-08-27T00:16:13.314Z,92.88
2018-08-27T00:17:13.236Z,92.60
2018-08-27T00:18:13.156Z,92.79
2018-08-27T00:19:13.077Z,92.79
2018-08-27T00:20:13.002Z,91.74
2018-08-27T00:21:12.924Z,91.45
2018-08-27T00:22:12.849Z,91.26
2018-08-27T00:23:12.779Z,91.45
2018-08-27T00:24:12.690Z,91.45
2018-08-27T00:25:12.614Z,90.21
2018-08-27T00:26:12.535Z,90.21
2018-08-27T00:27:12.459Z,90.59
2018-08-27T00:28:12.380Z,89.54
2018-08-27T00:29:12.302Z,89.73
2018-08-27T00:30:12.226Z,90.97
2018-08-27T00:31:12.157Z,91.45
2018-08-27T00:32:12.071Z,91.07
2018-08-27T00:33:11.993Z,91.26
2018-08-27T00:34:11.913Z,90.59
2018-08-27T00:35:11.840Z,91.26
2018-08-27T00:36:11.758Z,91.26
2018-08-27T00:37:11.682Z,90.88
2018-08-27T00:38:11.605Z,90.88
2018-08-27T00:39:11.530Z,90.69
2018-08-27T00:40:11.450Z,91.07
2018-08-27T00:41:11.373Z,90.11
2018-08-27T00:42:11.295Z,91.55
2018-08-27T00:43:11.216Z,92.02
2018-08-27T00:44:11.140Z,91.16
2018-08-27T00:45:11.063Z,90.97
2018-08-27T00:46:10.989Z,91.45
2018-08-27T00:47:10.906Z,91.07
2018-08-27T00:48:10.828Z,90.59
2018-08-27T00:49:10.754Z,90.69
2018-08-27T00:50:10.672Z,90.31
2018-08-27T00:51:10.595Z,91.16
2018-08-27T00:52:10.528Z,90.21
2018-08-27T00:53:10.441Z,90.69
2018-08-27T00:54:10.364Z,90.69
2018-08-27T00:55:10.286Z,91.45
2018-08-27T00:56:10.215Z,91.45
2018-08-27T00:57:10.137Z,91.36
2018-08-27T00:58:10.053Z,91.45
2018-08-27T00:59:09.976Z,90.97
2018-08-27T01:00:09.896Z,91.45
2018-08-27T01:01:09.825Z,90.69
2018-08-27T01:02:09.747Z,91.45
2018-08-27T01:03:09.664Z,91.45
2018-08-27T01:04:09.597Z,91.74
2018-08-27T01:05:09.510Z,92.69
2018-08-27T01:06:09.433Z,92.21
2018-08-27T01:07:09.357Z,91.16
2018-08-27T01:08:09.277Z,91.36
2018-08-27T01:09:09.196Z,91.16
2018-08-27T01:10:09.123Z,91.93
2018-08-27T01:11:09.044Z,92.69
2018-08-27T01:12:08.966Z,91.74
2018-08-27T01:13:08.888Z,90.97
2018-08-27T01:14:08.809Z,90.88
2018-08-27T01:15:08.730Z,91.55
2018-08-27T01:16:08.656Z,91.55
2018-08-27T01:17:08.579Z,91.45
2018-08-27T01:18:08.497Z,91.36
2018-08-27T01:19:08.438Z,91.45
2018-08-27T01:20:08.344Z,92.41
2018-08-27T01:21:08.266Z,91.83
2018-08-27T01:22:08.186Z,91.93
2018-08-27T01:23:08.109Z,92.50
2018-08-27T01:24:08.033Z,92.50
2018-08-27T01:25:07.954Z,91.74
2018-08-27T01:26:07.876Z,91.31
2018-08-27T01:27:07.801Z,91.88
2018-08-27T01:28:07.725Z,91.45
2018-08-27T01:29:07.642Z,91.69
2018-08-27T01:30:07.579Z,91.69
2018-08-27T01:31:07.485Z,91.60
2018-08-27T01:32:07.410Z,91.69
2018-08-27T01:33:07.331Z,91.60
2018-08-27T01:34:07.261Z,91.69
2018-08-27T01:35:07.176Z,92.36
2018-08-27T01:36:07.098Z,92.36
2018-08-27T01:37:07.019Z,91.88
2018-08-27T01:38:06.942Z,91.21
2018-08-27T01:39:06.865Z,91.31
2018-08-27T01:40:06.787Z,90.36
2018-08-27T01:41:06.708Z,91.60
2018-08-27T01:42:06.640Z,91.31
2018-08-27T01:43:06.554Z,91.78
2018-08-27T01:44:06.474Z,91.21
2018-08-27T01:45:06.400Z,91.41
2018-08-27T01:46:06.318Z,91.69
2018-08-27T01:47:06.245Z,91.69
2018-08-27T01:48:06.167Z,90.73
2018-08-27T01:49:06.089Z,90.83
2018-08-27T01:50:06.008Z,91.31
2018-08-27T01:51:05.928Z,91.41
2018-08-27T01:52:05.856Z,91.12
2018-08-27T01:53:05.771Z,90.26
2018-08-27T01:54:05.697Z,90.07
2018-08-27T01:55:05.618Z,90.17
2018-08-27T01:56:05.540Z,90.45
2018-08-27T01:57:05.467Z,90.45
2018-08-27T01:58:05.385Z,90.64
2018-08-27T01:59:05.305Z,91.02
2018-08-27T02:00:05.227Z,90.45
2018-08-27T02:01:05.150Z,90.64
2018-08-27T02:02:05.073Z,89.97
2018-08-27T02:03:04.993Z,89.78
2018-08-27T02:04:04.918Z,89.97
2018-08-27T02:05:04.836Z,91.50
2018-08-27T02:06:04.759Z,91.60
2018-08-27T02:07:04.683Z,91.02
2018-08-27T02:08:04.604Z,91.41
2018-08-27T02:09:04.525Z,91.60
2018-08-27T02:10:04.452Z,92.55
2018-08-27T02:11:04.368Z,92.74
2018-08-27T02:12:04.290Z,92.83
2018-08-27T02:13:04.212Z,93.51
2018-08-27T02:14:04.134Z,93.22
2018-08-27T02:15:04.055Z,92.46
2018-08-27T02:16:03.979Z,92.36
2018-08-27T02:17:03.902Z,92.74
2018-08-27T02:18:03.820Z,94.07
2018-08-27T02:19:03.744Z,93.27
2018-08-27T02:20:03.665Z,94.12
2018-08-27T02:21:03.663Z,93.84
2018-08-27T02:22:03.509Z,94.22
2018-08-27T02:23:03.431Z,94.89
2018-08-27T02:24:03.353Z,94.74
2018-08-27T02:25:03.275Z,95.75
2018-08-27T02:26:03.230Z,96.13
2018-08-27T02:27:03.118Z,94.98
2018-08-27T02:28:03.040Z,95.08
2018-08-27T02:29:02.964Z,96.13
2018-08-27T02:30:02.882Z,95.46
2018-08-27T02:31:02.808Z,95.94
2018-08-27T02:32:02.729Z,95.94
2018-08-27T02:33:02.651Z,95.75
2018-08-27T02:34:02.572Z,95.75
2018-08-27T02:35:02.522Z,96.13
2018-08-27T02:36:02.415Z,95.75
2018-08-27T02:37:02.338Z,95.75
2018-08-27T02:38:02.256Z,95.84
2018-08-27T02:39:02.179Z,95.75
2018-08-27T02:40:02.103Z,96.03
2018-08-27T02:41:02.022Z,94.89
2018-08-27T02:42:01.945Z,96.13
2018-08-27T02:43:01.866Z,95.65
2018-08-27T02:44:01.787Z,95.65
2018-08-27T02:45:01.712Z,95.65
2018-08-27T02:46:01.634Z,96.80
2018-08-27T02:47:01.553Z,96.98
2018-08-27T02:48:01.475Z,95.37
2018-08-27T02:49:01.397Z,94.98
2018-08-27T02:50:01.325Z,95.56
2018-08-27T02:51:01.238Z,95.17
2018-08-27T02:52:01.160Z,95.08
2018-08-27T02:53:01.083Z,95.27
2018-08-27T02:54:01.003Z,95.17
2018-08-27T02:55:00.925Z,96.03
2018-08-27T02:56:00.849Z,96.80
2018-08-27T02:57:00.770Z,95.94
2018-08-27T02:58:00.690Z,95.65
2018-08-27T02:59:00.615Z,96.22
2018-08-27T03:00:00.533Z,95.56
2018-08-27T03:01:00.456Z,95.56
2018-08-27T03:02:00.376Z,95.17
2018-08-27T03:03:00.301Z,95.56
2018-08-27T03:04:00.222Z,94.98
2018-08-27T03:05:00.141Z,96.03
2018-08-27T03:06:00.064Z,96.61
2018-08-27T03:06:59.985Z,96.89
2018-08-27T03:07:59.905Z,97.08
2018-08-27T03:08:59.830Z,96.98
2018-08-27T03:09:59.747Z,96.98
2018-08-27T03:10:59.671Z,97.17
2018-08-27T03:11:59.592Z,96.70
2018-08-27T03:12:59.514Z,96.61
2018-08-27T03:13:59.447Z,95.56
2018-08-27T03:14:59.359Z,96.13
2018-08-27T03:15:59.283Z,96.70
2018-08-27T03:16:59.200Z,96.89
2018-08-27T03:17:59.122Z,96.13
2018-08-27T03:18:59.045Z,96.61
2018-08-27T03:19:58.965Z,96.89
2018-08-27T03:20:58.888Z,96.89
2018-08-27T03:21:58.808Z,96.70
2018-08-27T03:22:58.728Z,96.80
2018-08-27T03:23:58.656Z,97.17
2018-08-27T03:24:58.625Z,96.89
2018-08-27T03:25:58.497Z,97.17
2018-08-27T03:26:58.420Z,95.46
2018-08-27T03:27:58.335Z,96.03
2018-08-27T03:28:58.258Z,96.89
2018-08-27T03:29:58.181Z,97.66
2018-08-27T03:30:58.101Z,96.98
2018-08-27T03:31:58.052Z,95.84
2018-08-27T03:32:57.943Z,96.13
2018-08-27T03:33:57.862Z,96.13
2018-08-27T03:34:57.786Z,95.46
2018-08-27T03:35:57.707Z,97.08
2018-08-27T03:36:57.627Z,96.80
2018-08-27T03:37:57.550Z,96.61
2018-08-27T03:38:57.471Z,96.98
2018-08-27T03:39:57.394Z,96.13
2018-08-27T03:40:57.315Z,96.13
2018-08-27T03:41:57.235Z,95.56
2018-08-27T03:42:57.157Z,96.89
2018-08-27T03:43:57.081Z,96.03
2018-08-27T03:44:57.001Z,96.89
2018-08-27T03:45:56.921Z,96.98
2018-08-27T03:46:56.847Z,97.56
2018-08-27T03:47:56.764Z,98.42
2018-08-27T03:48:56.686Z,97.75
2018-08-27T03:49:56.614Z,97.27
2018-08-27T03:50:56.528Z,96.80
2018-08-27T03:51:56.449Z,96.98
2018-08-27T03:52:56.372Z,96.89
2018-08-27T03:53:56.290Z,97.08
2018-08-27T03:54:56.215Z,97.37
2018-08-27T03:55:56.136Z,97.08
2018-08-27T03:56:56.056Z,96.84
2018-08-27T03:57:55.978Z,96.84
2018-08-27T03:58:55.898Z,96.41
2018-08-27T03:59:55.820Z,97.03
2018-08-27T04:00:55.744Z,96.75
2018-08-27T04:01:55.663Z,96.84
2018-08-27T04:02:55.584Z,96.98
2018-08-27T04:03:55.512Z,97.66
2018-08-27T04:04:55.427Z,98.03
2018-08-27T04:05:55.349Z,97.94
2018-08-27T04:06:55.277Z,96.98
2018-08-27T04:07:55.189Z,97.51
2018-08-27T04:08:55.111Z,98.13
2018-08-27T04:09:55.037Z,97.37
2018-08-27T04:10:54.956Z,97.03
2018-08-27T04:11:54.877Z,96.84
2018-08-27T04:12:54.800Z,97.03
2018-08-27T04:13:54.719Z,97.41
2018-08-27T04:14:54.639Z,98.75
2018-08-27T04:15:54.562Z,98.27
2018-08-27T04:16:54.485Z,98.08
2018-08-27T04:17:54.403Z,98.08
2018-08-27T04:18:54.327Z,98.27
2018-08-27T04:19:54.246Z,98.85
2018-08-27T04:20:54.167Z,99.99
2018-08-27T04:21:54.089Z,99.99
2018-08-27T04:22:54.011Z,99.99
2018-08-27T04:23:53.933Z,99.99
2018-08-27T04:24:53.853Z,99.51
2018-08-27T04:25:53.781Z,99.99
2018-08-27T04:26:53.693Z,99.70
2018-08-27T04:27:53.622Z,99.70
2018-08-27T04:28:53.598Z,99.80
2018-08-27T04:29:53.458Z,99.60
2018-08-27T04:30:53.382Z,99.04
2018-08-27T04:31:53.301Z,99.13
2018-08-27T04:32:53.223Z,99.13
2018-08-27T04:33:53.142Z,99.89
2018-08-27T04:34:53.130Z,99.70
2018-08-27T04:35:52.993Z,99.70
2018-08-27T04:36:52.909Z,98.85
2018-08-27T04:37:52.829Z,99.99
2018-08-27T04:38:52.763Z,99.99
2018-08-27T04:39:52.675Z,99.99
2018-08-27T04:40:52.592Z,99.99
2018-08-27T04:41:52.512Z,99.99
2018-08-27T04:42:52.435Z,99.99
2018-08-27T04:43:52.354Z,99.99
2018-08-27T04:44:52.277Z,99.99
2018-08-27T04:45:52.206Z,99.99
2018-08-27T04:46:52.166Z,99.99
2018-08-27T04:47:52.056Z,99.99
2018-08-27T04:48:51.963Z,99.99
2018-08-27T04:49:51.883Z,99.99
2018-08-27T04:50:51.804Z,99.99
2018-08-27T04:51:51.727Z,99.99
2018-08-27T04:52:51.647Z,99.99
2018-08-27T04:53:51.569Z,99.99
2018-08-27T04:54:51.490Z,99.99
2018-08-27T04:55:51.413Z,99.99
2018-08-27T04:56:51.333Z,99.99
2018-08-27T04:57:51.254Z,99.99
2018-08-27T04:58:51.173Z,99.99
2018-08-27T04:59:51.096Z,99.99
2018-08-27T05:00:51.032Z,99.99
2018-08-27T05:01:50.937Z,99.99
2018-08-27T05:02:50.863Z,99.99
2018-08-27T05:03:50.780Z,99.99
2018-08-27T05:04:50.706Z,99.99
2018-08-27T05:05:50.622Z,99.99
2018-08-27T05:06:50.543Z,99.99
2018-08-27T05:07:50.464Z,99.99
2018-08-27T05:08:50.392Z,99.99
2018-08-27T05:09:50.309Z,99.99
2018-08-27T05:10:50.227Z,99.99
2018-08-27T05:11:50.153Z,99.99
2018-08-27T05:12:50.071Z,99.80
2018-08-27T05:13:49.995Z,99.99
2018-08-27T05:14:49.912Z,99.32
2018-08-27T05:15:49.834Z,99.56
2018-08-27T05:16:49.757Z,99.56
2018-08-27T05:17:49.679Z,99.99
2018-08-27T05:18:49.597Z,99.99
2018-08-27T05:19:49.521Z,99.66
2018-08-27T05:20:49.442Z,99.99
2018-08-27T05:21:49.361Z,99.85
2018-08-27T05:22:49.281Z,99.99
2018-08-27T05:23:49.208Z,99.99
2018-08-27T05:24:49.125Z,99.99
2018-08-27T05:25:49.051Z,99.99
2018-08-27T05:26:48.969Z,99.99
2018-08-27T05:27:48.888Z,99.99
2018-08-27T05:28:48.813Z,99.99
2018-08-27T05:29:48.747Z,99.99
2018-08-27T05:30:48.718Z,99.99
2018-08-27T05:31:48.625Z,99.99
2018-08-27T05:32:48.505Z,99.99
2018-08-27T05:33:48.420Z,99.99
2018-08-27T05:34:48.339Z,99.99
2018-08-27T05:35:48.264Z,99.99
2018-08-27T05:36:48.181Z,99.99
2018-08-27T05:37:48.105Z,99.99
2018-08-27T05:38:48.031Z,99.99
2018-08-27T05:39:47.944Z,99.99
2018-08-27T05:40:47.871Z,99.85
2018-08-27T05:41:47.791Z,99.99
2018-08-27T05:42:47.711Z,99.99
2018-08-27T05:43:47.635Z,99.99
2018-08-27T05:44:47.579Z,99.99
2018-08-27T05:45:47.498Z,99.75
2018-08-27T05:46:47.398Z,99.99
2018-08-27T05:47:47.382Z,99.99
2018-08-27T05:48:47.241Z,99.66
2018-08-27T05:49:47.160Z,99.56
2018-08-27T05:50:47.082Z,99.95
2018-08-27T05:51:47.006Z,99.85
2018-08-27T05:52:46.929Z,99.56
2018-08-27T05:53:46.893Z,99.46
2018-08-27T05:54:46.771Z,99.46
2018-08-27T05:55:46.690Z,99.95
2018-08-27T05:56:46.613Z,99.99
2018-08-27T05:57:46.535Z,99.99
2018-08-27T05:58:46.455Z,99.99
2018-08-27T05:59:46.381Z,99.99
2018-08-27T06:00:46.321Z,99.99
2018-08-27T06:01:46.233Z,99.99
2018-08-27T06:02:46.150Z,99.99
2018-08-27T06:03:46.089Z,99.99
2018-08-27T06:04:45.985Z,99.99
2018-08-27T06:05:45.912Z,99.99
2018-08-27T06:06:45.825Z,99.99
2018-08-27T06:07:45.749Z,99.99
2018-08-27T06:08:45.670Z,99.99
2018-08-27T06:09:45.594Z,99.99
2018-08-27T06:10:45.518Z,99.99
2018-08-27T06:11:45.443Z,99.99
2018-08-27T06:12:45.358Z,99.99
2018-08-27T06:13:45.277Z,99.99
2018-08-27T06:14:45.201Z,99.99
2018-08-27T06:15:45.120Z,99.99
2018-08-27T06:16:45.046Z,99.99
2018-08-27T06:17:44.976Z,99.99
2018-08-27T06:18:44.888Z,99.99
2018-08-27T06:19:44.810Z,99.90
2018-08-27T06:20:44.738Z,99.99
2018-08-27T06:21:44.661Z,99.99
2018-08-27T06:22:44.572Z,99.99
2018-08-27T06:23:44.506Z,99.61
2018-08-27T06:24:44.421Z,99.99
2018-08-27T06:25:44.342Z,99.13
2018-08-27T06:26:44.259Z,98.27
2018-08-27T06:27:44.198Z,98.27
2018-08-27T06:28:44.105Z,98.47
2018-08-27T06:29:44.027Z,98.08
2018-08-27T06:30:43.976Z,97.51
2018-08-27T06:31:43.871Z,97.80
2018-08-27T06:32:43.801Z,97.22
2018-08-27T06:33:43.716Z,97.18
2018-08-27T06:34:43.635Z,96.98
2018-08-27T06:35:43.557Z,97.13
2018-08-27T06:36:43.486Z,96.75
2018-08-27T06:37:43.403Z,96.94
2018-08-27T06:38:43.324Z,96.89
2018-08-27T06:39:43.245Z,96.98
2018-08-27T06:40:43.168Z,96.89
2018-08-27T06:41:43.090Z,95.75
2018-08-27T06:42:43.013Z,96.89
2018-08-27T06:43:42.937Z,96.80
2018-08-27T06:44:42.856Z,96.03
2018-08-27T06:45:42.777Z,96.13
2018-08-27T06:46:42.698Z,96.22
2018-08-27T06:47:42.622Z,96.98
2018-08-27T06:48:42.544Z,97.27
2018-08-27T06:49:42.466Z,95.46
2018-08-27T06:50:42.388Z,94.22
2018-08-27T06:51:42.313Z,94.60
2018-08-27T06:52:42.260Z,94.03
2018-08-27T06:53:42.154Z,94.70
2018-08-27T06:54:42.080Z,95.36
2018-08-27T06:55:42.002Z,94.98
2018-08-27T06:56:42.017Z,94.79
2018-08-27T06:57:41.842Z,94.70
2018-08-27T06:58:41.770Z,94.36
2018-08-27T06:59:41.687Z,94.36
2018-08-27T07:00:41.626Z,94.27
2018-08-27T07:01:41.531Z,94.17
2018-08-27T07:02:41.455Z,93.60
2018-08-27T07:03:41.381Z,93.70
2018-08-27T07:04:41.311Z,92.74
2018-08-27T07:05:41.221Z,92.26
2018-08-27T07:06:41.146Z,93.02
2018-08-27T07:07:41.144Z,92.36
2018-08-27T07:08:40.989Z,91.97
2018-08-27T07:09:40.909Z,92.16
2018-08-27T07:10:40.847Z,91.88
2018-08-27T07:11:40.836Z,91.69
2018-08-27T07:12:40.678Z,91.78
2018-08-27T07:13:40.602Z,91.30
2018-08-27T07:14:40.523Z,91.54
2018-08-27T07:15:40.455Z,91.11
2018-08-27T07:16:40.373Z,90.97
2018-08-27T07:17:40.291Z,89.78
2018-08-27T07:18:40.215Z,89.25
2018-08-27T07:19:40.138Z,90.25
2018-08-27T07:20:40.064Z,90.25
2018-08-27T07:21:39.987Z,90.16
2018-08-27T07:22:39.904Z,89.53
2018-08-27T07:23:39.827Z,89.92
2018-08-27T07:24:39.753Z,91.06
2018-08-27T07:25:39.674Z,90.97
2018-08-27T07:26:39.593Z,90.35
2018-08-27T07:27:39.526Z,91.45
2018-08-27T07:28:39.440Z,90.88
2018-08-27T07:29:39.362Z,90.78
2018-08-27T07:30:39.290Z,90.78
2018-08-27T07:31:39.216Z,90.78
2018-08-27T07:32:39.132Z,90.11
2018-08-27T07:33:39.062Z,89.63
2018-08-27T07:34:38.980Z,90.11
2018-08-27T07:35:38.966Z,89.92
2018-08-27T07:36:38.903Z,90.39
2018-08-27T07:37:38.746Z,90.39
2018-08-27T07:38:38.672Z,89.25
2018-08-27T07:39:38.591Z,89.25
2018-08-27T07:40:38.516Z,89.25
2018-08-27T07:41:38.436Z,90.25
2018-08-27T07:42:38.358Z,88.72
2018-08-27T07:43:38.375Z,88.72
2018-08-27T07:44:38.210Z,89.01
2018-08-27T07:45:38.131Z,88.62
2018-08-27T07:46:38.051Z,88.05
2018-08-27T07:47:37.973Z,88.24
2018-08-27T07:48:37.899Z,88.15
2018-08-27T07:49:37.821Z,88.05
2018-08-27T07:50:37.744Z,89.01
2018-08-27T07:51:37.666Z,89.01
2018-08-27T07:52:37.592Z,89.20
2018-08-27T07:53:37.557Z,88.43
2018-08-27T07:54:37.444Z,87.23
2018-08-27T07:55:37.360Z,87.04
2018-08-27T07:56:37.280Z,85.22
2018-08-27T07:57:37.207Z,85.32
2018-08-27T07:58:37.244Z,85.32
2018-08-27T07:59:37.055Z,85.41
2018-08-27T08:00:36.981Z,84.65
2018-08-27T08:01:36.900Z,84.08
2018-08-27T08:02:36.827Z,84.55
2018-08-27T08:03:36.744Z,85.03
2018-08-27T08:04:36.714Z,85.61
2018-08-27T08:05:36.593Z,85.36
2018-08-27T08:06:36.529Z,83.73
2018-08-27T08:07:36.437Z,83.45
2018-08-27T08:08:36.361Z,83.06
2018-08-27T08:09:36.288Z,83.64
2018-08-27T08:10:36.209Z,83.26
2018-08-27T08:11:36.139Z,82.11
2018-08-27T08:12:36.062Z,81.96
2018-08-27T08:13:35.982Z,82.06
2018-08-27T08:14:35.903Z,81.38
2018-08-27T08:15:35.828Z,81.86
2018-08-27T08:16:35.754Z,79.66
2018-08-27T08:17:35.678Z,80.24
2018-08-27T08:18:35.598Z,79.75
2018-08-27T08:19:35.528Z,79.95
2018-08-27T08:20:35.450Z,79.51
2018-08-27T08:21:35.373Z,79.41
2018-08-27T08:22:35.303Z,78.17
2018-08-27T08:23:35.223Z,79.99
2018-08-27T08:24:35.151Z,80.32
2018-08-27T08:25:35.070Z,79.36
2018-08-27T08:26:34.998Z,78.20
2018-08-27T08:27:34.923Z,77.25
2018-08-27T08:28:34.846Z,77.44
2018-08-27T08:29:34.770Z,77.34
2018-08-27T08:30:34.700Z,77.25
2018-08-27T08:31:34.620Z,76.67
2018-08-27T08:32:34.549Z,77.58
2018-08-27T08:33:34.469Z,75.37
2018-08-27T08:34:34.396Z,75.18
2018-08-27T08:35:34.318Z,74.85
2018-08-27T08:36:34.325Z,75.23
2018-08-27T08:37:34.172Z,75.56
2018-08-27T08:38:34.096Z,74.79
2018-08-27T08:39:34.021Z,73.93
2018-08-27T08:40:33.946Z,72.30
2018-08-27T08:41:33.872Z,72.39
2018-08-27T08:42:33.803Z,73.16
2018-08-27T08:43:33.722Z,72.97
2018-08-27T08:44:33.648Z,73.26
2018-08-27T08:45:33.577Z,72.78
2018-08-27T08:46:33.519Z,72.88
2018-08-27T08:47:33.427Z,72.11
2018-08-27T08:48:33.360Z,72.68
2018-08-27T08:49:33.276Z,72.78
2018-08-27T08:50:33.201Z,73.55
2018-08-27T08:51:33.132Z,73.00
2018-08-27T08:52:33.054Z,71.76
2018-08-27T08:53:33.006Z,70.48
2018-08-27T08:54:32.906Z,72.20
2018-08-27T08:55:32.833Z,72.88
2018-08-27T08:56:32.756Z,71.82
2018-08-27T08:57:32.684Z,71.44
2018-08-27T08:58:32.620Z,70.38
2018-08-27T08:59:32.534Z,71.19
2018-08-27T09:00:32.459Z,70.96
2018-08-27T09:01:32.390Z,71.72
2018-08-27T09:02:32.314Z,71.63
2018-08-27T09:03:32.236Z,71.09
2018-08-27T09:04:32.163Z,71.05
2018-08-27T09:05:32.089Z,71.44
2018-08-27T09:06:32.013Z,71.09
2018-08-27T09:07:31.939Z,71.66
2018-08-27T09:08:31.906Z,71.47
2018-08-27T09:09:31.792Z,71.57
2018-08-27T09:10:31.725Z,72.05
2018-08-27T09:11:31.642Z,70.99
2018-08-27T09:12:31.571Z,71.66
2018-08-27T09:13:31.498Z,72.63
2018-08-27T09:14:31.417Z,71.28
2018-08-27T09:15:31.346Z,71.95
2018-08-27T09:16:31.277Z,71.19
2018-08-27T09:17:31.241Z,70.70
2018-08-27T09:18:31.127Z,71.47
2018-08-27T09:19:31.047Z,71.70
2018-08-27T09:20:30.972Z,70.64
2018-08-27T09:21:30.901Z,70.07
2018-08-27T09:22:30.826Z,71.31
2018-08-27T09:23:30.751Z,70.64
2018-08-27T09:24:30.677Z,70.07
2018-08-27T09:25:38.298Z,69.59
2018-08-27T09:27:34.573Z,69.11
2018-08-27T09:28:34.491Z,68.91
2018-08-27T09:30:38.335Z,69.59
2018-08-27T09:31:38.211Z,69.59
2018-08-27T09:33:42.060Z,68.53
2018-08-27T09:34:41.981Z,68.24
2018-08-27T09:36:34.798Z,68.05
2018-08-27T09:37:34.728Z,67.67
2018-08-27T09:38:34.589Z,67.80
2018-08-27T09:39:34.515Z,67.32
2018-08-27T09:40:34.445Z,67.41
2018-08-27T09:41:34.420Z,66.36
2018-08-27T09:42:34.290Z,66.84
2018-08-27T09:43:34.216Z,64.82
2018-08-27T09:44:34.156Z,65.97
2018-08-27T09:45:34.072Z,65.40
2018-08-27T09:46:33.993Z,64.63
2018-08-27T09:47:33.921Z,65.11
2018-08-27T09:48:33.843Z,65.11
2018-08-27T09:49:33.771Z,65.88
2018-08-27T09:50:33.696Z,66.16
2018-08-27T09:51:33.657Z,65.30
2018-08-27T09:52:33.563Z,66.77
2018-08-27T09:53:33.473Z,65.59
2018-08-27T09:54:33.400Z,64.28
2018-08-27T09:55:33.327Z,63.22
2018-08-27T09:56:33.252Z,63.02
2018-08-27T09:57:33.182Z,63.02
2018-08-27T09:58:33.141Z,63.99
2018-08-27T09:59:33.031Z,64.37
2018-08-27T10:00:32.959Z,63.12
2018-08-27T10:01:32.880Z,61.97
2018-08-27T10:02:32.807Z,63.15
2018-08-27T10:03:32.737Z,63.06
2018-08-27T10:04:32.660Z,60.85
2018-08-27T10:05:32.589Z,61.91
2018-08-27T10:06:32.512Z,61.46
2018-08-27T10:07:32.438Z,61.14
2018-08-27T10:08:32.367Z,59.92
2018-08-27T10:09:32.292Z,59.82
2018-08-27T10:10:32.219Z,59.92
2018-08-27T10:11:32.144Z,59.53
2018-08-27T10:12:32.074Z,59.92
2018-08-27T10:13:31.996Z,60.11
2018-08-27T10:14:31.925Z,59.92
2018-08-27T10:15:31.850Z,59.92
2018-08-27T10:16:31.775Z,58.86
2018-08-27T10:17:31.707Z,57.80
2018-08-27T10:18:31.629Z,59.24
2018-08-27T10:19:31.556Z,59.82
2018-08-27T10:20:31.482Z,59.85
2018-08-27T10:21:31.413Z,57.45
2018-08-27T10:22:31.415Z,56.38
2018-08-27T10:23:31.267Z,56.00
2018-08-27T10:24:31.191Z,56.29
2018-08-27T10:25:31.159Z,56.67
2018-08-27T10:26:31.081Z,56.10
2018-08-27T10:27:30.982Z,57.47
2018-08-27T10:28:30.899Z,57.28
2018-08-27T10:29:30.827Z,56.03
2018-08-27T10:30:30.754Z,54.97
2018-08-27T10:31:30.680Z,55.16
2018-08-27T10:32:30.608Z,55.26
2018-08-27T10:33:30.537Z,55.65
2018-08-27T10:34:30.461Z,55.35
2018-08-27T10:35:30.392Z,56.70
2018-08-27T10:36:30.361Z,54.39
2018-08-27T10:37:30.245Z,52.56
2018-08-27T10:38:30.172Z,52.59
2018-08-27T10:39:30.099Z,52.20
2018-08-27T10:40:30.030Z,52.01
2018-08-27T10:41:29.955Z,51.24
2018-08-27T10:42:29.880Z,51.92
2018-08-27T10:43:29.808Z,50.66
2018-08-27T10:44:29.742Z,51.14
2018-08-27T10:45:29.667Z,53.19
2018-08-27T10:46:29.593Z,50.98
2018-08-27T10:47:29.519Z,49.24
2018-08-27T10:48:29.450Z,48.83
2018-08-27T10:49:29.378Z,49.60
2018-08-27T10:50:29.357Z,50.66
2018-08-27T10:51:29.232Z,51.07
2018-08-27T10:52:29.159Z,51.84
2018-08-27T10:53:29.087Z,51.07
2018-08-27T10:54:29.017Z,49.91
2018-08-27T10:55:28.941Z,49.53
2018-08-27T10:56:28.869Z,48.69
2018-08-27T10:57:28.810Z,48.97
2018-08-27T10:58:28.794Z,50.90
2018-08-27T10:59:28.655Z,49.27
2018-08-27T11:00:28.582Z,50.81
2018-08-27T11:01:28.512Z,50.35
2018-08-27T11:02:28.442Z,46.47
2018-08-27T11:03:28.375Z,44.06
2018-08-27T11:04:28.296Z,43.79
2018-08-27T11:05:28.226Z,43.12
2018-08-27T11:06:28.153Z,43.02
2018-08-27T11:07:28.082Z,42.73
2018-08-27T11:08:28.011Z,42.66
2018-08-27T11:09:27.938Z,42.75
2018-08-27T11:10:27.871Z,44.78
2018-08-27T11:11:27.797Z,43.93
2018-08-27T11:12:27.731Z,42.58
2018-08-27T11:13:27.658Z,42.97
2018-08-27T11:14:27.584Z,42.29
2018-08-27T11:15:27.562Z,41.42
2018-08-27T11:16:27.453Z,41.91
2018-08-27T11:17:27.372Z,42.12
2018-08-27T11:18:27.299Z,43.76
2018-08-27T11:19:27.298Z,41.93
2018-08-27T11:20:27.439Z,40.28
2018-08-27T11:21:27.088Z,39.90
2018-08-27T11:22:27.020Z,39.70
2018-08-27T11:23:26.957Z,39.90
2018-08-27T11:24:26.878Z,39.99
2018-08-27T11:25:26.818Z,40.17
2018-08-27T11:26:26.762Z,39.87
2018-08-27T11:27:26.671Z,39.11
2018-08-27T11:28:26.599Z,38.91
2018-08-27T11:29:26.532Z,39.49
2018-08-27T11:30:26.459Z,39.28
2018-08-27T11:31:26.389Z,39.69
2018-08-27T11:32:26.321Z,39.49
2018-08-27T11:33:26.255Z,39.69
2018-08-27T11:34:26.179Z,39.20
2018-08-27T11:35:26.108Z,38.33
2018-08-27T11:36:26.040Z,37.96
2018-08-27T11:37:25.971Z,37.38
2018-08-27T11:38:25.897Z,37.10
2018-08-27T11:39:25.829Z,39.04
2018-08-27T11:40:25.761Z,40.59
2018-08-27T11:41:25.689Z,38.08
2018-08-27T11:42:25.620Z,36.72
2018-08-27T11:43:25.614Z,36.72
2018-08-27T11:44:25.481Z,37.02
2018-08-27T11:45:25.415Z,37.30
2018-08-27T11:46:25.342Z,37.98
2018-08-27T11:47:25.272Z,37.70
2018-08-27T11:48:25.238Z,37.70
2018-08-27T11:49:25.133Z,38.28
2018-08-27T11:50:25.185Z,38.68
2018-08-27T11:51:25.001Z,38.78
2018-08-27T11:52:24.926Z,37.71
2018-08-27T11:53:24.861Z,37.42
2018-08-27T11:54:24.787Z,35.58
2018-08-27T11:55:24.718Z,35.58
2018-08-27T11:56:24.650Z,35.66
2018-08-27T11:57:24.583Z,35.37
2018-08-27T11:58:24.513Z,36.65
2018-08-27T11:59:24.446Z,35.88
2018-08-27T12:00:24.376Z,36.28
2018-08-27T12:01:24.310Z,35.41
2018-08-27T12:02:24.239Z,34.73
2018-08-27T12:03:24.171Z,35.89
2018-08-27T12:04:24.106Z,34.83
2018-08-27T12:05:24.041Z,34.83
2018-08-27T12:06:23.969Z,34.92
2018-08-27T12:07:23.902Z,35.33
2018-08-27T12:08:23.841Z,35.13
2018-08-27T12:09:23.765Z,35.25
2018-08-27T12:10:23.698Z,34.69
2018-08-27T12:11:23.658Z,36.54
2018-08-27T12:12:23.565Z,33.56
2018-08-27T12:13:23.502Z,34.85
2018-08-27T12:14:23.436Z,31.66
2018-08-27T12:15:23.372Z,30.02
2018-08-27T12:16:23.306Z,28.00
2018-08-27T12:17:23.246Z,28.69
2018-08-27T12:18:23.185Z,28.22
2018-08-27T12:19:23.116Z,27.06
2018-08-27T12:20:23.054Z,25.99
2018-08-27T12:21:22.996Z,25.70
2018-08-27T12:22:22.929Z,25.32
2018-08-27T12:23:22.868Z,25.04
2018-08-27T12:24:22.809Z,24.78
2018-08-27T12:25:22.751Z,24.40
2018-08-27T12:26:22.691Z,24.02
2018-08-27T12:27:22.629Z,23.74
2018-08-27T12:28:22.566Z,21.47
2018-08-27T12:29:22.514Z,20.97
2018-08-27T12:30:22.454Z,21.25
2018-08-27T12:31:22.393Z,22.83
2018-08-27T12:32:22.334Z,22.81
2018-08-27T12:33:22.272Z,23.78
2018-08-27T12:34:22.209Z,22.80
2018-08-27T12:35:22.150Z,23.61
2018-08-27T12:36:22.092Z,22.56
2018-08-27T12:37:22.032Z,21.31
2018-08-27T12:38:21.969Z,21.12
2018-08-27T12:39:21.908Z,21.32
2018-08-27T12:40:21.855Z,20.93
2018-08-27T12:41:21.803Z,21.20
2018-08-27T12:42:21.732Z,22.47
2018-08-27T12:43:21.674Z,22.50
2018-08-27T12:44:21.615Z,20.43
2018-08-27T12:45:21.556Z,20.34
2018-08-27T12:46:21.495Z,21.19
2018-08-27T12:47:21.434Z,22.44
2018-08-27T12:48:21.400Z,22.52
2018-08-27T12:49:21.319Z,22.52
2018-08-27T12:50:21.258Z,23.38
2018-08-27T12:51:21.220Z,24.41
2018-08-27T12:52:21.139Z,24.89
2018-08-27T12:53:21.111Z,25.75
2018-08-27T12:54:21.025Z,26.14
2018-08-27T12:55:20.957Z,27.01